Flight Track Log - Related Links

Times and Time Zones

All times are in EDT time to prevent confusion due to time zone crossing. See the N709UW flight status page for this flight to view local times or setup timezone preferences in your user account.

Time Position Orientation Groundspeed Altitude Reporting Facility
EDT Latitude Longitude Course Direction KTS MPH feet Rate Location/Type
Fri 07:03:11 PM 39.8567 -75.2883 185° South 160 184 1,300  Level FAA TRACON SMA TRACON (SMA)
Fri 07:03:31 PM 39.8483 -75.3014 230° Southwest 157 181 1,900 1,650 Climbing FAA TRACON SMA TRACON (SMA)
Fri 07:03:51 PM 39.8389 -75.3147 227° Southwest 161 185 2,400 2,100 Climbing FAA TRACON SMA TRACON (SMA)
Fri 07:04:11 PM 39.8247 -75.3328 224° Southwest 184 212 3,300 2,550 Climbing FAA TRACON SMA TRACON (SMA)
Fri 07:04:31 PM 39.8128 -75.3464 221° Southwest 186 214 4,100 2,250 Climbing FAA TRACON SMA TRACON (SMA)
Fri 07:04:51 PM 39.7978 -75.3589 213° Southwest 224 258 4,800 2,550 Climbing FAA TRACON SMA TRACON (SMA)
Fri 07:05:11 PM 39.7742 -75.3619 186° South 225 259 5,800 2,850 Climbing FAA TRACON SMA TRACON (SMA)
Fri 07:05:31 PM 39.7542 -75.3628 182° South 231 266 6,700 2,700 Climbing FAA TRACON SMA TRACON (SMA)
Fri 07:05:51 PM 39.7339 -75.3642 183° South 236 272 7,600 3,000 Climbing FAA TRACON SMA TRACON (SMA)
Fri 07:06:11 PM 39.7083 -75.3650 181° South 238 274 8,700 2,850 Climbing FAA TRACON SMA TRACON (SMA)
Fri 07:06:31 PM 39.6872 -75.3658 182° South 244 281 9,500 2,200 Climbing FAA TRACON SMA TRACON (SMA)
Fri 07:07:11 PM 39.6369 -75.3675 181° South 264 304 10,900 1,700 Climbing FAA TRACON SMA TRACON (SMA)
Fri 07:07:31 PM 39.6114 -75.3683 181° South 297 342 11,200 1,200 Climbing FAA TRACON SMA TRACON (SMA)
Fri 07:07:51 PM 39.5850 -75.3686 180° South 312 359 11,700 2,100 Climbing FAA TRACON SMA TRACON (SMA)
Fri 07:08:00 PM 38.9823 -75.4038 185° South  Level FlightAware Approximate
Fri 07:08:11 PM 39.5503 -75.3706 182° South 320 368 12,600  Level FAA TRACON SMA TRACON (SMA)
Fri 07:08:31 PM 39.5228 -75.3708 180° South 323 372 13,400 2,250 Climbing FAA TRACON SMA TRACON (SMA)
Fri 07:08:51 PM 39.4947 -75.3719 182° South 326 375 14,100 2,550 Climbing FAA TRACON SMA TRACON (SMA)
Fri 07:09:11 PM 39.4592 -75.3728 181° South 328 377 15,100 2,400 Climbing FAA TRACON SMA TRACON (SMA)
Fri 07:09:31 PM 39.4308 -75.3739 182° South 330 380 15,700 1,800 Climbing FAA TRACON SMA TRACON (SMA)
Fri 07:09:51 PM 39.4036 -75.3747 181° South 331 381 16,300 1,800 Climbing FAA TRACON SMA TRACON (SMA)
Fri 07:10:11 PM 39.3667 -75.3756 181° South 333 383 16,900 1,200 Climbing FAA TRACON SMA TRACON (SMA)
Fri 07:10:31 PM 39.3372 -75.3750 179° South 334 384 17,100 300 Climbing FAA TRACON SMA TRACON (SMA)
Fri 07:10:51 PM 39.3092 -75.3775 184° South 334 384 17,100  Level FAA TRACON SMA TRACON (SMA)
Fri 07:11:11 PM 39.2733 -75.3783 181° South 335 386 17,100 -150 Level FAA TRACON SMA TRACON (SMA)
Fri 07:11:31 PM 39.2456 -75.3800 183° South 334 384 17,000 -150 Descending FAA TRACON SMA TRACON (SMA)
Fri 07:11:51 PM 39.2456 -75.3800 180° South 334 384 17,000 864 Level FAA TRACON SMA TRACON (SMA)
Fri 07:13:43 PM 39.0361 -75.4072 186° South 340 391 18,900 1,360 Climbing Washington Center
Fri 07:14:43 PM 38.9422 -75.4208 186° South 346 398 20,900 1,300 Climbing Washington Center
Fri 07:15:43 PM 38.8464 -75.4397 189° South 352 405 21,500 1,000 Climbing Washington Center
Fri 07:16:43 PM 38.7547 -75.4931 204° Southwest 352 405 22,900 1,200 Climbing Washington Center
Fri 07:17:43 PM 38.6611 -75.5439 203° Southwest 364 419 23,900 1,000 Climbing Washington Center
Fri 07:18:43 PM 38.5631 -75.6022 205° Southwest 379 436 24,900 1,200 Climbing Washington Center
Fri 07:19:43 PM 38.4650 -75.6606 205° Southwest 385 443 26,300 1,200 Climbing Washington Center
Fri 07:20:43 PM 38.3608 -75.7161 203° Southwest 390 449 27,300 1,050 Climbing Washington Center
Fri 07:21:43 PM 38.2586 -75.7742 204° Southwest 401 461 28,400 1,050 Climbing Washington Center
Fri 07:22:43 PM 38.1542 -75.8319 204° Southwest 401 461 29,400 1,000 Climbing Washington Center
Fri 07:23:43 PM 38.0497 -75.8897 204° Southwest 406 467 30,400 1,000 Climbing Washington Center
Fri 07:24:43 PM 37.9475 -75.9472 204° Southwest 406 467 31,400 1,000 Climbing Washington Center
Fri 07:25:43 PM 37.8533 -75.9994 204° Southwest 406 467 32,400 1,050 Climbing Washington Center
Fri 07:26:43 PM 37.7553 -76.0619 207° Southwest 406 467 33,500 800 Climbing Washington Center
Fri 07:27:43 PM 37.6547 -76.1189 204° Southwest 401 461 34,000 250 Climbing Washington Center
Fri 07:28:43 PM 37.5503 -76.1681 200° South 401 461 34,000  Level Washington Center
Fri 07:29:43 PM 37.4478 -76.2275 205° Southwest 401 461 34,000  Level Washington Center
Fri 07:30:43 PM 37.3453 -76.2814 203° Southwest 401 461 34,000  Level Washington Center
Fri 07:31:43 PM 37.2428 -76.3406 205° Southwest 401 461 34,000  Level Washington Center
Fri 07:32:43 PM 37.1403 -76.3944 203° Southwest 401 461 34,000  Level Washington Center
Fri 07:33:43 PM 37.0375 -76.4531 204° Southwest 401 461 34,000  Level Washington Center
Fri 07:34:43 PM 36.9350 -76.5092 204° Southwest 401 461 34,000  Level Washington Center
Fri 07:35:43 PM 36.8322 -76.5675 204° Southwest 401 461 34,000  Level Washington Center
Fri 07:36:43 PM 36.7253 -76.6258 204° Southwest 401 461 34,000  Level Washington Center
Fri 07:37:43 PM 36.6225 -76.6842 204° Southwest 401 461 34,000  Level Washington Center
Fri 07:38:43 PM 36.5136 -76.7419 203° Southwest 411 473 34,000  Level Washington Center
Fri 07:39:43 PM 36.4086 -76.7972 203° Southwest 416 479 34,000  Level Washington Center
Fri 07:40:43 PM 36.3039 -76.8550 204° Southwest 416 479 34,000  Level Washington Center
Fri 07:41:43 PM 36.2011 -76.9100 203° Southwest 416 479 34,000  Level Washington Center
Fri 07:42:43 PM 36.0939 -76.9647 202° Southwest 416 479 34,000  Level Washington Center
Fri 07:43:43 PM 35.9911 -77.0219 204° Southwest 416 479 34,000  Level Washington Center
Fri 07:44:43 PM 35.8819 -77.0739 201° Southwest 422 486 34,000  Level Washington Center
Fri 07:45:43 PM 35.7769 -77.1308 204° Southwest 422 486 34,000  Level Washington Center
Fri 07:46:43 PM 35.6739 -77.1900 205° Southwest 417 480 34,000  Level Washington Center
Fri 07:47:43 PM 35.5689 -77.2417 202° Southwest 417 480 34,000 -50 Level Washington Center
Fri 07:48:43 PM 35.4636 -77.2981 204° Southwest 422 486 33,900  Descending Washington Center
Fri 07:49:43 PM 35.3564 -77.3569 204° Southwest 422 486 34,000 50 Climbing Washington Center
Fri 07:50:43 PM 35.2472 -77.4106 202° Southwest 422 486 34,000 50 Level Washington Center
Fri 07:51:43 PM 35.1297 -77.4486 195° South 422 486 34,100  Climbing Washington Center
Fri 07:52:43 PM 35.0164 -77.4889 196° South 428 493 34,000 -50 Descending Washington Center
Fri 07:53:43 PM 34.9011 -77.5294 196° South 433 498 34,000  Level Washington Center
Fri 07:54:43 PM 34.7897 -77.5697 197° South 433 498 34,000 -50 Level Washington Center
Fri 07:55:43 PM 34.6764 -77.6100 196° South 422 486 33,900 -50 Descending Washington Center
Fri 07:56:43 PM 34.5611 -77.6475 195° South 422 486 33,900 50 Level Washington Center
Fri 07:57:43 PM 34.4497 -77.6850 196° South 422 486 34,000 50 Climbing Washington Center
Fri 07:58:43 PM 34.3344 -77.7247 196° South 422 486 34,000  Level Washington Center
Fri 08:00:20 PM 34.1500 -77.7814 194° South 421 484 34,000  Level Jacksonville Center
Fri 08:01:20 PM 34.0350 -77.8208 196° South 427 491 34,000  Level Jacksonville Center
Fri 08:02:20 PM 33.9239 -77.8597 196° South 427 491 34,000  Level Jacksonville Center
Fri 08:03:20 PM 33.8064 -77.8989 195° South 432 497 34,000 50 Level Jacksonville Center
Fri 08:04:20 PM 33.6933 -77.9378 196° South 432 497 34,100  Climbing Jacksonville Center
Fri 08:05:20 PM 33.5614 -77.9825 196° South 438 504 34,000 -50 Descending Jacksonville Center
Fri 08:06:20 PM 33.4481 -78.0186 195° South 438 504 34,000  Level Jacksonville Center
Fri 08:07:20 PM 33.3306 -78.0575 195° South 433 498 34,000  Level Jacksonville Center
Fri 08:08:20 PM 33.2172 -78.0958 196° South 433 498 34,000  Level Jacksonville Center
Fri 08:09:20 PM 33.1019 -78.1344 196° South 433 498 34,000 -50 Level Jacksonville Center
Fri 08:10:20 PM 32.9864 -78.1728 196° South 433 498 33,900 -50 Descending Jacksonville Center
Fri 08:11:20 PM 32.8711 -78.2108 195° South 433 498 33,900 50 Level Jacksonville Center
Fri 08:12:20 PM 32.7578 -78.2489 196° South 433 498 34,000 50 Climbing Jacksonville Center
Fri 08:13:20 PM 32.6442 -78.2842 195° South 433 498 34,000 -50 Level Jacksonville Center
Fri 08:14:20 PM 32.5286 -78.3222 196° South 433 498 33,900 100 Descending Jacksonville Center
Fri 08:15:20 PM 32.4131 -78.3600 195° South 433 498 34,200 750 Climbing Jacksonville Center
Fri 08:16:20 PM 32.2997 -78.4000 197° South 433 498 35,400 850 Climbing Jacksonville Center
Fri 08:17:20 PM 32.1864 -78.4375 196° South 433 498 35,900 300 Climbing Jacksonville Center
Fri 08:18:20 PM 32.0667 -78.4775 196° South 433 498 36,000 50 Climbing Jacksonville Center
Fri 08:19:20 PM 31.9489 -78.5150 195° South 438 504 36,000  Level Jacksonville Center
Fri 08:20:20 PM 31.8292 -78.5525 195° South 443 510 36,000  Level Jacksonville Center
Fri 08:21:20 PM 31.7114 -78.5897 195° South 443 510 36,000  Level Jacksonville Center
Fri 08:22:20 PM 31.5917 -78.6269 195° South 443 510 36,000 -50 Level Jacksonville Center
Fri 08:23:20 PM 31.4761 -78.6639 195° South 443 510 35,900 -50 Descending Jacksonville Center
Fri 08:24:20 PM 31.3581 -78.6986 194° South 443 510 35,900 50 Level Jacksonville Center
Fri 08:25:20 PM 31.2383 -78.7403 197° South 448 516 36,000 50 Climbing Jacksonville Center
Fri 08:26:20 PM 31.1186 -78.7819 197° South 448 516 36,000  Level Jacksonville Center
Fri 08:27:20 PM 31.0008 -78.8139 193° South 448 516 36,000  Level Jacksonville Center
Fri 08:28:20 PM 30.8831 -78.8528 196° South 448 516 36,000  Level Jacksonville Center
Fri 08:29:20 PM 30.7692 -78.8867 194° South 443 510 36,000 -50 Level Jacksonville Center
Fri 08:30:20 PM 30.6494 -78.9231 195° South 437 503 35,900  Descending Jacksonville Center
Fri 08:30:40 PM 30.6175 -78.9328 195° South 438 504 36,000 75 Climbing Miami Center
Fri 08:31:40 PM 30.5106 -78.9692 196° South 438 504 36,000 -50 Level Miami Center
Fri 08:32:40 PM 30.3975 -79.0053 195° South 433 498 35,900 -50 Descending Miami Center
Fri 08:33:40 PM 30.2883 -79.0558 202° Southwest 438 504 35,900 50 Level Miami Center
Fri 08:34:40 PM 30.1708 -79.1039 199° South 437 503 36,000 50 Climbing Miami Center
Fri 08:35:40 PM 30.0575 -79.1519 200° South 437 503 36,000  Level Miami Center
Fri 08:36:40 PM 29.9358 -79.2092 202° Southwest 431 496 36,000  Level Miami Center
Fri 08:37:40 PM 29.8203 -79.2569 200° South 438 504 36,000  Level Miami Center
Fri 08:38:40 PM 29.7067 -79.3117 203° Southwest 438 504 36,000  Level Miami Center
Fri 08:39:40 PM 29.5911 -79.3614 201° Southwest 444 511 36,000  Level Miami Center
Fri 08:40:40 PM 29.4758 -79.4042 198° South 444 511 36,000  Level Miami Center
Fri 08:41:40 PM 29.3642 -79.4564 202° Southwest 439 505 36,000  Level Miami Center
Fri 08:42:40 PM 29.2506 -79.5058 201° Southwest 439 505 36,000  Level Miami Center
Fri 08:43:40 PM 29.1350 -79.5556 201° Southwest 434 499 36,000  Level Miami Center
Fri 08:44:40 PM 29.0156 -79.5881 193° South 434 499 36,000  Level Miami Center
Fri 08:45:40 PM 28.8919 -79.6064 187° South 434 499 36,000  Level Miami Center
Fri 08:46:40 PM 28.7706 -79.6294 189° South 446 513 36,000  Level Miami Center
Fri 08:47:40 PM 28.6428 -79.6500 188° South 451 519 36,000 50 Level Miami Center
Fri 08:48:40 PM 28.5314 -79.6967 200° South 445 512 36,100  Climbing Miami Center
Fri 08:49:40 PM 28.4194 -79.7578 206° Southwest 445 512 36,000 -50 Descending Miami Center
Fri 08:50:40 PM 28.3097 -79.8183 206° Southwest 439 505 36,000  Level Miami Center
Fri 08:51:40 PM 28.1981 -79.8769 205° Southwest 439 505 36,000  Level Miami Center
Fri 08:52:40 PM 28.0903 -79.9375 206° Southwest 434 499 36,000  Level Miami Center
Fri 08:53:40 PM 27.9806 -79.9956 205° Southwest 428 493 36,000  Level Miami Center
Fri 08:54:40 PM 27.8833 -80.0494 206° Southwest 433 498 36,000  Level Miami Center
Fri 08:55:40 PM 27.7564 -80.1139 204° Southwest 438 504 36,000  Level Miami Center
Fri 08:56:40 PM 27.6486 -80.1742 206° Southwest 438 504 36,000  Level Miami Center
Fri 08:57:40 PM 27.5367 -80.2317 204° Southwest 438 504 36,000  Level Miami Center
Fri 08:58:40 PM 27.4289 -80.2894 205° Southwest 438 504 36,000  Level Miami Center
Fri 08:59:40 PM 27.3189 -80.3492 206° Southwest 438 504 36,000  Level Miami Center
Fri 09:00:40 PM 27.2108 -80.4092 206° Southwest 432 497 36,000  Level Miami Center
Fri 09:01:40 PM 27.1008 -80.4664 205° Southwest 432 497 36,000  Level Miami Center
Fri 09:02:40 PM 26.9908 -80.5258 206° Southwest 427 491 36,000  Level Miami Center
Fri 09:03:40 PM 26.8808 -80.5828 205° Southwest 432 497 36,000  Level Miami Center
Fri 09:04:40 PM 26.7686 -80.6422 205° Southwest 437 503 36,000  Level Miami Center
Fri 09:05:40 PM 26.6692 -80.6947 205° Southwest 437 503 36,000  Level Miami Center
Fri 09:06:40 PM 26.5525 -80.7606 207° Southwest 430 495 36,000  Level Miami Center
Fri 09:07:40 PM 26.4647 -80.8411 219° Southwest 440 506 36,000  Level Miami Center
Fri 09:08:40 PM 26.3597 -80.9328 218° Southwest 445 512 36,000  Level Miami Center
Fri 09:09:40 PM 26.2761 -81.0108 220° Southwest 440 506 36,000  Level Miami Center
Fri 09:10:40 PM 26.1861 -81.0933 219° Southwest 433 498 36,000  Level Miami Center
Fri 09:11:40 PM 26.0917 -81.1803 220° Southwest 433 498 36,000  Level Miami Center
Fri 09:12:40 PM 25.9972 -81.2692 220° Southwest 439 505 36,000  Level Miami Center
Fri 09:13:40 PM 25.9028 -81.3533 219° Southwest 439 505 36,000  Level Miami Center
Fri 09:14:40 PM 25.8103 -81.4378 219° Southwest 439 505 36,000  Level Miami Center
Fri 09:15:40 PM 25.7136 -81.5261 219° Southwest 444 511 36,000  Level Miami Center
Fri 09:16:40 PM 25.6189 -81.6122 219° Southwest 439 505 36,000  Level Miami Center
Fri 09:18:40 PM 25.4294 -81.7819 219° Southwest 439 505 36,000  Level Miami Center
Fri 09:19:40 PM 25.3347 -81.8700 220° Southwest 439 505 36,000  Level Miami Center
Fri 09:20:40 PM 25.2400 -81.9556 219° Southwest 439 505 36,000  Level Miami Center
Fri 09:21:40 PM 25.1431 -82.0411 219° Southwest 439 505 36,000  Level Miami Center
Fri 09:22:40 PM 25.0458 -82.1286 219° Southwest 445 512 36,000  Level Miami Center
Fri 09:23:40 PM 24.9511 -82.2139 219° Southwest 445 512 36,000 -50 Level Miami Center
Fri 09:24:40 PM 24.8539 -82.2989 218° Southwest 445 512 35,900  Descending Miami Center
Fri 09:25:40 PM 24.7569 -82.3836 218° Southwest 445 512 36,000 50 Climbing Miami Center
Fri 09:26:40 PM 24.6594 -82.4731 220° Southwest 451 519 36,000  Level Miami Center
Fri 09:27:40 PM 24.5625 -82.5578 218° Southwest 451 519 36,000  Level Miami Center
Fri 09:28:40 PM 24.4653 -82.6422 218° Southwest 456 525 36,000  Level Miami Center
Fri 09:29:40 PM 24.3656 -82.7308 219° Southwest 461 531 36,000  Level Miami Center
Fri 09:30:40 PM 24.2703 -82.8197 220° Southwest 461 531 36,000  Level Miami Center
Fri 09:31:39 PM 24.1731 -82.9039 218° Southwest 461 531 36,000  Level Miami Center
Fri 09:32:40 PM 24.0733 -82.9900 218° Southwest 461 531 36,000  Level Miami Center
Fri 09:34:00 PM 23.9726 -83.0950 244° Southwest  Level FlightAware Approximate
Fri 09:41:00 PM 23.6233 -83.8733 244° Southwest  Level FlightAware Approximate
Fri 09:42:00 PM 23.5731 -83.9842 244° Southwest  Level FlightAware Approximate
Fri 09:43:00 PM 23.5228 -84.0949 244° Southwest  Level FlightAware Approximate
Fri 09:44:00 PM 23.4725 -84.2056 244° Southwest  Level FlightAware Approximate
Fri 09:45:00 PM 23.4220 -84.3162 244° Southwest  Level FlightAware Approximate
Fri 09:46:00 PM 23.3715 -84.4267 244° Southwest  Level FlightAware Approximate
Fri 09:47:00 PM 23.3209 -84.5372 243° Southwest  Level FlightAware Approximate
Fri 09:48:00 PM 23.2702 -84.6475 243° Southwest  Level FlightAware Approximate
Fri 09:49:00 PM 23.2195 -84.7578 243° Southwest  Level FlightAware Approximate
Fri 09:50:00 PM 23.1474 -84.8500 221° Southwest  Level FlightAware Approximate
Fri 09:51:00 PM 23.0620 -84.9310 221° Southwest  Level FlightAware Approximate
Fri 09:52:00 PM 22.9766 -85.0119 221° Southwest  Level FlightAware Approximate
Fri 09:53:00 PM 22.8911 -85.0927 221° Southwest  Level FlightAware Approximate
Fri 09:54:00 PM 22.8004 -85.1663 216° Southwest  Level FlightAware Approximate
Fri 09:55:00 PM 22.7151 -85.2473 221° Southwest  Level FlightAware Approximate
Fri 09:56:00 PM 22.6299 -85.3281 221° Southwest  Level FlightAware Approximate
Fri 09:57:00 PM 22.5445 -85.4089 221° Southwest  Level FlightAware Approximate
Fri 09:58:00 PM 22.4598 -85.4902 223° Southwest  Level FlightAware Approximate
Fri 09:59:00 PM 22.3747 -85.5712 221° Southwest  Level FlightAware Approximate
Fri 10:00:00 PM 22.2888 -85.6510 221° Southwest  Level FlightAware Approximate
Fri 10:01:00 PM 22.2028 -85.7308 221° Southwest  Level FlightAware Approximate
Fri 10:02:00 PM 22.1140 -85.8128 221° Southwest  Level FlightAware Approximate
Fri 10:03:00 PM 22.0252 -85.8948 221° Southwest  Level FlightAware Approximate
Fri 10:04:00 PM 21.9377 -85.9784 222° Southwest  Level FlightAware Approximate
Fri 10:05:00 PM 21.8502 -86.0619 222° Southwest  Level FlightAware Approximate
Fri 10:06:00 PM 21.7627 -86.1453 222° Southwest  Level FlightAware Approximate
Fri 10:07:00 PM 21.6751 -86.2287 221° Southwest  Level FlightAware Approximate
Fri 10:08:00 PM 21.5886 -86.3131 227° Southwest  Level FlightAware Approximate
Fri 10:09:00 PM 21.5085 -86.4046 227° Southwest  Level FlightAware Approximate
Fri 10:10:00 PM 21.4219 -86.4887 220° Southwest  Level FlightAware Approximate
Fri 10:11:00 PM 21.3323 -86.5693 220° Southwest  Level FlightAware Approximate
Fri 10:12:00 PM 21.2419 -86.6488 219° Southwest  Level FlightAware Approximate
Fri 10:13:00 PM 21.1509 -86.7271 212° Southwest  Level FlightAware Approximate
Fri 10:14:00 PM 21.0687 -86.8139 231° Southwest  Level FlightAware Approximate
Fri 10:15:00 PM 21.0167 -86.8667 270° West  Level FlightAware Approximate
Fri 10:16:00 PM 21.0365 -86.8771 270° West  Level Estimated
Fri 10:17:00 PM 21.0365 -86.8771 270° West  Level Estimated
Fri 10:18:00 PM 21.0365 -86.8771 270° West  Level Estimated
Fri 10:19:00 PM 21.0365 -86.8771 270° West  Level Estimated
Fri 10:20:00 PM 21.0365 -86.8771 270° West  Level Estimated
Fri 10:21:00 PM 21.0365 -86.8771 270° West  Level Estimated

Login

Don't have an account? Register now (free) for customized features, flight alerts, and more!